Time;durP1;ratioP1;P1;durP2;ratioP2;P2;SDS_P1;SDS_P2;PMS_P1;PMS_P2;Temp;Humidity;BMP_temperature;BMP_pressure;BME280_temperature;BME280_humidity;BME280_pressure;Samples;Min_cycle;Max_cycle;Signal;HPM_P1;HPM_P2
2021/09/19 00:00:46;;;;;;;28.30;18.33;;;;;;;13.06;95.97;101371.81;5082551;28;20230;-63
2021/09/19 00:03:11;;;;;;;27.25;18.55;;;;;;;13.03;95.63;101368.25;5083316;28;20032;-63
2021/09/19 00:05:36;;;;;;;28.52;18.45;;;;;;;13.04;95.95;101370.03;5081295;28;20021;-63
2021/09/19 00:08:02;;;;;;;27.80;18.92;;;;;;;13.02;98.09;101370.03;5084341;28;20028;-63
2021/09/19 00:10:27;;;;;;;27.50;18.38;;;;;;;12.89;99.07;101369.13;5081242;28;20017;-63
2021/09/19 00:12:53;;;;;;;27.67;18.80;;;;;;;12.88;100.00;101374.41;5083475;28;20112;-63
2021/09/19 00:15:19;;;;;;;27.83;19.10;;;;;;;12.85;100.00;101379.72;5082775;28;20032;-63
2021/09/19 00:17:46;;;;;;;27.52;19.17;;;;;;;12.74;100.00;101382.31;5082076;28;20025;-63
2021/09/19 00:20:13;;;;;;;28.20;18.02;;;;;;;12.71;100.00;101377.00;5082492;28;20016;-63
2021/09/19 00:22:39;;;;;;;27.05;17.85;;;;;;;12.72;100.00;101378.78;5080857;28;20454;-63
2021/09/19 00:25:06;;;;;;;27.08;18.60;;;;;;;12.72;100.00;101377.00;5084456;28;20100;-63
2021/09/19 00:27:31;;;;;;;28.98;19.25;;;;;;;12.66;100.00;101362.84;5081117;28;20403;-63
2021/09/19 00:29:57;;;;;;;28.00;18.02;;;;;;;12.65;100.00;101358.41;5083611;28;20028;-63
2021/09/19 00:32:22;;;;;;;27.00;17.95;;;;;;;12.61;100.00;101361.91;5081786;28;20082;-63
2021/09/19 00:34:47;;;;;;;28.55;18.85;;;;;;;12.64;100.00;101361.94;5082325;28;20452;-63
2021/09/19 00:37:13;;;;;;;28.13;18.55;;;;;;;12.56;100.00;101362.78;5083164;28;20041;-63
2021/09/19 00:39:38;;;;;;;28.73;19.60;;;;;;;12.48;100.00;101364.53;5080970;28;20456;-63
2021/09/19 00:42:04;;;;;;;28.88;19.27;;;;;;;12.46;100.00;101362.75;5084128;28;20046;-63
2021/09/19 00:44:29;;;;;;;27.30;19.00;;;;;;;12.43;100.00;101355.66;5080841;28;20024;-65
2021/09/19 00:46:55;;;;;;;27.95;19.25;;;;;;;12.40;100.00;101355.66;5083306;28;20012;-66
2021/09/19 00:49:23;;;;;;;28.75;20.17;;;;;;;12.35;100.00;101360.06;5081760;28;20035;-65
2021/09/19 00:51:48;;;;;;;28.00;19.50;;;;;;;12.34;100.00;101359.16;5082098;28;20502;-65
2021/09/19 00:54:15;;;;;;;29.05;20.05;;;;;;;12.37;100.00;101356.50;5082892;28;20032;-65
2021/09/19 00:56:41;;;;;;;28.33;19.60;;;;;;;12.33;100.00;101359.16;5081118;28;20107;-65
2021/09/19 00:59:08;;;;;;;27.77;18.67;;;;;;;12.37;100.00;101363.59;5083443;28;20062;-65
2021/09/19 01:01:33;;;;;;;28.02;20.25;;;;;;;12.37;100.00;101353.84;5080577;28;20035;-66
2021/09/19 01:04:01;;;;;;;28.88;20.05;;;;;;;12.31;100.00;101361.78;5083565;28;20131;-66
2021/09/19 01:06:27;;;;;;;27.83;19.40;;;;;;;12.33;100.00;101344.16;5080836;28;20170;-65
2021/09/19 01:08:53;;;;;;;29.15;20.35;;;;;;;12.29;100.00;101349.41;5082693;28;20468;-66
2021/09/19 01:11:20;;;;;;;28.95;19.75;;;;;;;12.23;100.00;101354.69;5082087;28;20070;-65
2021/09/19 01:13:46;;;;;;;31.40;20.15;;;;;;;12.23;100.00;101350.25;5081547;28;20383;-65
2021/09/19 01:16:14;;;;;;;30.40;20.63;;;;;;;12.17;100.00;101356.44;5083185;28;20020;-65
2021/09/19 01:18:41;;;;;;;29.25;20.60;;;;;;;12.18;100.00;101360.84;5081018;28;20036;-65
2021/09/19 01:21:07;;;;;;;30.13;20.35;;;;;;;12.17;100.00;101356.44;5083630;28;20054;-65
2021/09/19 01:23:33;;;;;;;28.63;20.42;;;;;;;12.17;100.00;101359.09;5080219;28;20032;-66
2021/09/19 01:26:00;;;;;;;30.05;20.77;;;;;;;12.12;100.00;101354.63;5083314;28;20379;-67
2021/09/19 01:28:26;;;;;;;28.88;20.80;;;;;;;12.12;100.00;101351.97;5081269;28;20028;-67
2021/09/19 01:30:52;;;;;;;28.10;19.75;;;;;;;12.08;100.00;101348.41;5082707;28;20028;-66
2021/09/19 01:33:17;;;;;;;29.33;19.88;;;;;;;12.11;100.00;101353.72;5085296;28;20023;-66
2021/09/19 01:35:43;;;;;;;28.45;19.75;;;;;;;12.04;100.00;101354.56;5084440;28;20089;-67
2021/09/19 01:38:08;;;;;;;29.25;20.70;;;;;;;11.99;100.00;101337.75;5086813;28;20035;-67
2021/09/19 01:40:33;;;;;;;30.02;20.70;;;;;;;11.94;100.00;101347.41;5083867;28;20021;-67
2021/09/19 01:42:59;;;;;;;29.13;20.95;;;;;;;11.92;100.00;101351.81;5086600;28;20459;-67
2021/09/19 01:45:25;;;;;;;29.38;20.77;;;;;;;11.85;100.00;101343.81;5084627;28;20064;-67
2021/09/19 01:47:52;;;;;;;28.02;20.08;;;;;;;11.88;100.00;101345.59;5085471;28;20024;-67
2021/09/19 01:50:20;;;;;;;28.20;20.45;;;;;;;11.84;100.00;101343.81;5085230;28;20020;-66
2021/09/19 01:52:45;;;;;;;30.27;21.60;;;;;;;11.79;100.00;101346.41;5085088;28;20175;-66
2021/09/19 01:55:11;;;;;;;28.40;20.42;;;;;;;11.77;100.00;101339.34;5086391;28;20113;-67
2021/09/19 01:57:36;;;;;;;28.60;19.63;;;;;;;11.75;100.00;101341.06;5083442;28;20472;-66
2021/09/19 02:00:03;;;;;;;29.65;21.48;;;;;;;11.70;100.00;101341.03;5083478;28;20069;-67
2021/09/19 02:02:32;;;;;;;28.98;20.75;;;;;;;11.61;100.00;101335.69;5086148;28;20036;-67
2021/09/19 02:04:57;;;;;;;28.65;20.08;;;;;;;11.66;100.00;101336.59;5084013;28;20369;-67
2021/09/19 02:07:23;;;;;;;29.17;20.02;;;;;;;11.61;100.00;101325.09;5085381;28;20024;-65
2021/09/19 02:09:48;;;;;;;28.80;19.80;;;;;;;11.58;100.00;101319.78;5084949;28;20375;-67
2021/09/19 02:12:14;;;;;;;28.13;19.25;;;;;;;11.59;100.00;101326.84;5084139;28;20021;-66
2021/09/19 02:14:41;;;;;;;29.95;20.27;;;;;;;11.59;100.00;101316.25;5086348;28;20027;-64
2021/09/19 02:17:06;;;;;;;29.77;20.88;;;;;;;11.54;100.00;101317.97;5083210;28;20482;-64
2021/09/19 02:19:31;;;;;;;27.33;18.70;;;;;;;11.44;100.00;101320.53;5082863;28;20021;-64
2021/09/19 02:21:57;;;;;;;29.23;20.13;;;;;;;11.55;100.00;101319.72;5085758;28;20028;-65
2021/09/19 02:24:22;;;;;;;28.85;20.00;;;;;;;11.56;100.00;101313.56;5083886;28;20035;-64
2021/09/19 02:26:48;;;;;;;27.67;18.90;;;;;;;11.50;100.00;101311.75;5084628;28;20021;-64
2021/09/19 02:29:13;;;;;;;27.98;19.58;;;;;;;11.42;100.00;101305.53;5085449;28;20024;-65
2021/09/19 02:31:38;;;;;;;27.40;18.70;;;;;;;11.43;100.00;101312.59;5082750;28;20028;-64
2021/09/19 02:34:03;;;;;;;26.98;17.88;;;;;;;11.34;100.00;101313.38;5086373;28;20482;-64
2021/09/19 02:36:29;;;;;;;28.65;19.55;;;;;;;11.32;100.00;101317.78;5082861;28;20097;-64
2021/09/19 02:38:54;;;;;;;27.40;18.70;;;;;;;11.29;100.00;101320.41;5084732;28;20117;-64
2021/09/19 02:41:22;;;;;;;27.77;18.95;;;;;;;11.29;100.00;101307.19;5084142;28;20059;-64
2021/09/19 02:43:48;;;;;;;29.65;20.08;;;;;;;11.28;100.00;101314.22;5083111;28;20035;-64
2021/09/19 02:46:13;;;;;;;29.77;20.52;;;;;;;11.25;100.00;101315.97;5084980;28;20032;-64
2021/09/19 02:48:38;;;;;;;28.05;18.90;;;;;;;11.16;100.00;101307.06;5082934;28;20379;-64
2021/09/19 02:51:04;;;;;;;28.17;19.38;;;;;;;11.19;100.00;101300.03;5085655;28;20012;-63
2021/09/19 02:53:29;;;;;;;27.52;18.92;;;;;;;11.13;100.00;101308.81;5082618;28;20040;-65
2021/09/19 02:55:54;;;;;;;28.00;18.33;;;;;;;11.13;100.00;101298.22;5084587;28;20024;-64
2021/09/19 02:58:20;;;;;;;27.15;18.55;;;;;;;11.07;100.00;101299.06;5083572;28;20138;-64
2021/09/19 03:00:45;;;;;;;27.17;18.05;;;;;;;11.04;100.00;101296.38;5083438;28;20037;-64
2021/09/19 03:03:10;;;;;;;27.85;18.40;;;;;;;10.98;100.00;101298.97;5085027;28;20104;-65
2021/09/19 03:05:36;;;;;;;28.08;18.92;;;;;;;11.06;100.00;101299.91;5063423;28;20467;-64
2021/09/19 03:08:01;;;;;;;29.83;20.60;;;;;;;11.02;100.00;101298.09;5085509;28;20052;-63
2021/09/19 03:10:27;;;;;;;29.50;19.83;;;;;;;10.96;100.00;101288.34;5082351;28;20534;-64
2021/09/19 03:12:52;;;;;;;27.80;19.02;;;;;;;10.96;100.00;101293.63;5083923;28;20028;-65
2021/09/19 03:15:18;;;;;;;29.20;19.98;;;;;;;10.94;100.00;101287.47;5083935;28;20020;-63
2021/09/19 03:17:43;;;;;;;27.92;19.05;;;;;;;10.94;100.00;101292.75;5082793;28;20024;-64
2021/09/19 03:20:12;;;;;;;30.60;19.77;;;;;;;10.91;100.00;101298.00;5084970;28;20047;-63
2021/09/19 03:22:38;;;;;;;29.38;19.75;;;;;;;10.90;100.00;101296.22;5081679;28;20033;-63
2021/09/19 03:25:05;;;;;;;26.42;17.88;;;;;;;10.81;100.00;101298.78;5085136;28;20024;-63
2021/09/19 03:27:31;;;;;;;28.05;18.27;;;;;;;10.89;100.00;101299.75;5081571;28;20047;-63
2021/09/19 03:29:57;;;;;;;27.05;17.77;;;;;;;10.81;100.00;101294.38;5084657;28;20024;-63
2021/09/19 03:32:23;;;;;;;28.80;19.58;;;;;;;10.80;100.00;101292.63;5083037;28;20028;-63
2021/09/19 03:34:48;;;;;;;29.17;18.90;;;;;;;10.81;100.00;101296.16;5082666;28;20482;-63
2021/09/19 03:37:13;;;;;;;30.10;20.92;;;;;;;10.78;100.00;101293.47;5084445;28;20031;-63
2021/09/19 03:39:39;;;;;;;29.25;19.83;;;;;;;10.76;100.00;101290.81;5081449;28;20059;-63
2021/09/19 03:42:04;;;;;;;28.80;19.10;;;;;;;10.71;100.00;101297.78;5084494;28;20067;-63
2021/09/19 03:44:29;;;;;;;27.63;17.98;;;;;;;10.64;100.00;101296.84;5063824;28;20040;-63
2021/09/19 03:46:55;;;;;;;27.02;17.08;;;;;;;10.63;100.00;101294.19;5083822;28;20027;-63
2021/09/19 03:49:20;;;;;;;26.52;16.45;;;;;;;10.65;100.00;101297.72;5083008;28;20112;-63
2021/09/19 03:51:45;;;;;;;26.50;16.73;;;;;;;10.64;100.00;101301.25;5082257;28;20077;-63
2021/09/19 03:54:11;;;;;;;28.00;18.42;;;;;;;10.61;100.00;101293.28;5084056;28;20069;-63
2021/09/19 03:56:36;;;;;;;27.33;18.35;;;;;;;10.57;100.00;101296.75;5081153;28;20483;-65
2021/09/19 03:59:01;;;;;;;29.23;19.52;;;;;;;10.64;100.00;101301.25;5083981;28;20055;-65
2021/09/19 04:01:27;;;;;;;29.10;19.65;;;;;;;10.61;100.00;101306.50;5081693;28;20052;-64
2021/09/19 04:03:52;;;;;;;27.83;18.90;;;;;;;10.55;100.00;101301.16;5083286;28;20028;-63
2021/09/19 04:06:17;;;;;;;28.55;18.60;;;;;;;10.52;100.00;101306.41;5082991;28;20027;-65
2021/09/19 04:08:42;;;;;;;26.70;17.10;;;;;;;10.49;100.00;101309.88;5081581;28;20034;-64
2021/09/19 04:11:08;;;;;;;26.92;17.45;;;;;;;10.43;100.00;101301.88;5084778;28;20030;-64
2021/09/19 04:13:33;;;;;;;27.90;18.83;;;;;;;10.46;100.00;101302.78;5080816;28;20021;-64
2021/09/19 04:16:00;;;;;;;27.10;18.08;;;;;;;10.45;100.00;101301.00;5083931;28;20060;-64
2021/09/19 04:18:25;;;;;;;28.50;18.88;;;;;;;10.42;100.00;101295.69;5082053;28;20024;-64
2021/09/19 04:20:51;;;;;;;28.55;19.23;;;;;;;10.41;100.00;101299.22;5082451;28;20066;-64
2021/09/19 04:23:16;;;;;;;28.85;21.30;;;;;;;10.41;100.00;101293.94;5083274;28;20042;-64
2021/09/19 04:25:41;;;;;;;28.77;19.90;;;;;;;10.42;100.00;101287.75;5081384;28;20024;-64
2021/09/19 04:28:07;;;;;;;29.38;19.77;;;;;;;10.40;100.00;101289.50;5065728;28;20032;-64
2021/09/19 04:30:32;;;;;;;27.77;18.42;;;;;;;10.31;100.00;101294.66;5081200;28;20452;-64
2021/09/19 04:32:57;;;;;;;28.65;18.00;;;;;;;10.28;100.00;101298.16;5083493;28;20475;-64
2021/09/19 04:35:23;;;;;;;27.90;17.98;;;;;;;10.29;100.00;101299.03;5082041;28;20382;-64
2021/09/19 04:37:48;;;;;;;27.30;18.13;;;;;;;10.28;100.00;101298.16;5082155;28;20031;-64
2021/09/19 04:40:14;;;;;;;26.30;16.63;;;;;;;10.29;100.00;101299.94;5083351;28;20391;-64
2021/09/19 04:42:40;;;;;;;27.95;18.13;;;;;;;10.22;100.00;101298.06;5080598;28;20040;-64
2021/09/19 04:45:07;;;;;;;27.45;17.38;;;;;;;10.17;100.00;101290.94;5084059;28;20036;-64
2021/09/19 04:47:32;;;;;;;26.77;17.42;;;;;;;10.17;100.00;101290.94;5080551;28;20478;-64
2021/09/19 04:49:57;;;;;;;30.95;19.92;;;;;;;10.19;100.00;101289.22;5083200;28;20024;-64
2021/09/19 04:52:23;;;;;;;29.23;20.25;;;;;;;10.19;100.00;101292.72;5064452;28;20498;-64
2021/09/19 04:54:48;;;;;;;29.05;20.33;;;;;;;10.18;100.00;101290.06;5081870;28;20028;-66
2021/09/19 04:57:13;;;;;;;29.05;19.52;;;;;;;10.11;100.00;101290.00;5083217;28;20062;-65
2021/09/19 04:59:39;;;;;;;28.42;19.30;;;;;;;10.11;100.00;101297.03;5080453;28;20076;-64
2021/09/19 05:02:05;;;;;;;27.42;18.25;;;;;;;10.04;100.00;101293.41;5084026;28;20036;-65
2021/09/19 05:04:30;;;;;;;28.50;18.77;;;;;;;10.12;100.00;101299.69;5080974;28;20037;-65
2021/09/19 05:06:56;;;;;;;29.33;19.30;;;;;;;10.11;100.00;101300.56;5083948;28;20027;-64
2021/09/19 05:09:21;;;;;;;29.67;19.55;;;;;;;10.12;100.00;101291.78;5085756;28;20063;-66
2021/09/19 05:11:46;;;;;;;26.65;17.13;;;;;;;10.06;100.00;101296.06;5085666;28;20074;-64
2021/09/19 05:14:12;;;;;;;28.70;19.58;;;;;;;10.13;100.00;101295.28;5087122;28;20070;-65
2021/09/19 05:16:38;;;;;;;30.65;19.70;;;;;;;10.02;100.00;101286.31;5084177;28;20036;-64
2021/09/19 05:19:03;;;;;;;27.73;18.92;;;;;;;10.00;100.00;101290.72;5087674;28;20115;-65
2021/09/19 05:21:29;;;;;;;28.67;18.63;;;;;;;10.01;100.00;101287.22;5084530;28;20104;-65
2021/09/19 05:23:54;;;;;;;28.33;18.63;;;;;;;9.99;100.00;101294.22;5086308;28;20036;-65
2021/09/19 05:26:19;;;;;;;29.15;19.08;;;;;;;10.05;100.00;101292.56;5086003;28;20086;-64
2021/09/19 05:28:45;;;;;;;32.40;21.70;;;;;;;10.07;100.00;101284.66;5084549;28;20028;-66
2021/09/19 05:31:12;;;;;;;29.35;20.35;;;;;;;10.10;100.00;101292.63;5086957;28;20028;-64
2021/09/19 05:33:38;;;;;;;28.88;19.48;;;;;;;10.06;100.00;101289.06;5084174;28;20471;-64
2021/09/19 05:36:03;;;;;;;31.55;21.10;;;;;;;10.10;100.00;101296.13;5087191;28;20039;-63
2021/09/19 05:38:29;;;;;;;30.42;20.65;;;;;;;10.12;100.00;101299.69;5084468;28;20411;-64
2021/09/19 05:40:54;;;;;;;31.25;21.10;;;;;;;10.16;100.00;101302.38;5085942;28;20021;-63
2021/09/19 05:43:19;;;;;;;30.75;20.25;;;;;;;10.12;100.00;101294.41;5085524;28;20036;-63
2021/09/19 05:45:45;;;;;;;31.08;19.42;;;;;;;10.15;100.00;101298.88;5084498;28;20023;-63
2021/09/19 05:48:10;;;;;;;31.90;21.33;;;;;;;10.20;100.00;101301.56;5086829;28;20028;-63
2021/09/19 05:50:35;;;;;;;29.42;19.02;;;;;;;10.23;100.00;101298.94;5083704;28;20461;-63
2021/09/19 05:53:01;;;;;;;31.02;21.48;;;;;;;10.26;100.00;101304.28;5086758;28;20032;-63
2021/09/19 05:55:26;;;;;;;29.75;19.60;;;;;;;10.29;100.00;101305.22;5084688;28;20028;-63
2021/09/19 05:57:51;;;;;;;30.35;20.50;;;;;;;10.36;100.00;101308.84;5085094;28;20487;-63
2021/09/19 06:00:17;;;;;;;31.70;21.20;;;;;;;10.38;100.00;101309.75;5085760;28;20085;-63
2021/09/19 06:02:42;;;;;;;32.53;21.70;;;;;;;10.43;100.00;101320.38;5083717;28;20028;-64
2021/09/19 06:05:10;;;;;;;30.60;19.85;;;;;;;10.39;100.00;101319.44;5086862;28;20131;-63
2021/09/19 06:07:35;;;;;;;31.02;20.98;;;;;;;10.42;100.00;101311.56;5083410;28;20028;-63
2021/09/19 06:10:01;;;;;;;31.05;20.13;;;;;;;10.51;100.00;101315.19;5086022;28;20016;-64
2021/09/19 06:12:26;;;;;;;32.83;20.70;;;;;;;10.54;100.00;101326.69;5084223;28;20032;-63
2021/09/19 06:14:52;;;;;;;33.90;18.70;;;;;;;10.59;100.00;101329.41;5084939;28;20497;-64
2021/09/19 06:17:20;;;;;;;30.65;20.33;;;;;;;10.62;100.00;101319.72;5085344;28;20115;-64
2021/09/19 06:19:47;;;;;;;30.48;19.45;;;;;;;10.66;100.00;101312.72;5083926;28;20372;-64
2021/09/19 06:22:13;;;;;;;30.60;19.13;;;;;;;10.73;100.00;101316.31;5085955;28;20024;-64
2021/09/19 06:24:38;;;;;;;30.15;19.55;;;;;;;10.77;100.00;101312.84;5082709;28;20486;-64
2021/09/19 06:27:04;;;;;;;31.13;20.48;;;;;;;10.80;100.00;101318.16;5086089;28;20016;-63
2021/09/19 06:29:29;;;;;;;30.88;20.67;;;;;;;10.85;100.00;101320.84;5083588;28;20035;-63
2021/09/19 06:31:55;;;;;;;30.10;19.60;;;;;;;10.98;100.00;101320.13;5084983;28;20024;-64
2021/09/19 06:34:20;;;;;;;31.83;20.83;;;;;;;11.06;100.00;101315.78;5084632;28;20030;-64
2021/09/19 06:36:46;;;;;;;31.05;20.20;;;;;;;11.14;100.00;101324.69;5083386;28;20024;-63
2021/09/19 06:39:11;;;;;;;30.63;20.33;;;;;;;11.25;100.00;101326.56;5085727;28;20020;-64
2021/09/19 06:41:37;;;;;;;30.08;19.90;;;;;;;11.35;100.00;101325.75;5082549;28;20098;-63
2021/09/19 06:44:03;;;;;;;30.77;19.65;;;;;;;11.40;100.00;101329.34;5085526;28;20024;-63
2021/09/19 06:46:31;;;;;;;30.70;19.58;;;;;;;11.47;100.00;101325.84;5083178;28;20020;-63
2021/09/19 06:48:58;;;;;;;30.10;19.85;;;;;;;11.50;100.00;101333.84;5084651;28;20455;-64
2021/09/19 06:51:24;;;;;;;30.98;19.75;;;;;;;11.59;100.00;101340.97;5084075;28;20426;-64
2021/09/19 06:53:49;;;;;;;29.83;19.67;;;;;;;11.72;100.00;101335.75;5083858;28;20048;-63
2021/09/19 06:56:15;;;;;;;29.50;19.75;;;;;;;11.82;100.00;101338.50;5085142;28;20020;-64
2021/09/19 06:58:40;;;;;;;30.73;20.08;;;;;;;11.90;100.00;101338.56;5081960;28;20104;-64
2021/09/19 07:01:07;;;;;;;29.60;19.05;;;;;;;11.97;100.00;101336.84;5085765;28;20103;-63
2021/09/19 07:03:33;;;;;;;29.85;18.92;;;;;;;12.10;100.00;101336.06;5082189;28;20119;-64
2021/09/19 07:05:58;;;;;;;29.17;18.60;;;;;;;12.18;100.00;101336.97;5084768;28;20100;-64
2021/09/19 07:08:24;;;;;;;31.40;19.05;;;;;;;12.26;100.00;101336.13;5083384;28;20084;-63
2021/09/19 07:10:49;;;;;;;29.20;18.42;;;;;;;12.36;100.00;101335.31;5083482;28;20020;-65
2021/09/19 07:13:14;;;;;;;28.95;18.13;;;;;;;12.43;100.00;101337.09;5084880;28;20467;-65
2021/09/19 07:15:43;;;;;;;29.85;17.35;;;;;;;12.54;100.00;101332.72;5081884;28;20527;-64
2021/09/19 07:18:09;;;;;;;30.88;18.88;;;;;;;12.63;100.00;101337.19;5081978;28;20024;-64
2021/09/19 07:20:34;;;;;;;27.67;17.35;;;;;;;12.72;100.00;101336.34;5084927;28;20522;-66
2021/09/19 07:23:00;;;;;;;33.65;21.33;;;;;;;12.83;100.00;101337.25;5082136;28;20040;-65
2021/09/19 07:25:25;;;;;;;26.58;16.02;;;;;;;12.90;100.00;101341.72;5065415;28;20097;-65
2021/09/19 07:27:51;;;;;;;27.25;15.68;;;;;;;13.05;100.00;101338.19;5065629;28;20089;-65
2021/09/19 07:30:16;;;;;;;28.92;15.95;;;;;;;13.16;100.00;101337.31;5082024;28;20024;-65
2021/09/19 07:32:42;;;;;;;28.30;15.90;;;;;;;13.22;100.00;101338.22;5084642;28;20479;-65
2021/09/19 07:35:07;;;;;;;28.95;16.55;;;;;;;13.34;100.00;101339.09;5081565;28;20034;-65
2021/09/19 07:37:33;;;;;;;25.85;14.75;;;;;;;13.38;100.00;101343.56;5084766;28;20031;-65
2021/09/19 07:40:00;;;;;;;24.38;14.05;;;;;;;13.42;100.00;101350.66;5082115;28;20467;-65
2021/09/19 07:42:25;;;;;;;25.17;14.45;;;;;;;13.51;100.00;101350.66;5083284;28;20033;-65
2021/09/19 07:44:51;;;;;;;24.48;14.20;;;;;;;13.59;100.00;101348.88;5083404;28;20538;-65
2021/09/19 07:47:16;;;;;;;26.08;14.98;;;;;;;13.71;100.00;101350.66;5081902;28;20388;-65
2021/09/19 07:49:43;;;;;;;25.38;13.70;;;;;;;13.83;100.00;101364.81;5084471;28;20032;-65
2021/09/19 07:52:09;;;;;;;25.40;14.25;;;;;;;13.93;100.00;101370.13;5081218;28;20037;-65
2021/09/19 07:54:35;;;;;;;25.30;14.45;;;;;;;14.02;100.00;101363.03;5084641;28;20020;-65
2021/09/19 07:57:01;;;;;;;24.58;13.52;;;;;;;14.08;100.00;101373.63;5081965;28;20028;-64
2021/09/19 07:59:26;;;;;;;25.00;13.15;;;;;;;14.18;100.00;101371.84;5083333;28;20403;-65
2021/09/19 08:01:51;;;;;;;23.98;12.90;;;;;;;14.25;100.00;101370.97;5082941;28;20028;-65
2021/09/19 08:04:17;;;;;;;24.52;13.07;;;;;;;14.28;100.00;101370.94;5081938;28;20032;-66
2021/09/19 08:06:42;;;;;;;23.95;13.02;;;;;;;14.34;100.00;101381.56;5084224;28;20016;-65
2021/09/19 08:09:08;;;;;;;24.02;12.50;;;;;;;14.38;100.00;101372.69;5080822;28;20559;-64
2021/09/19 08:11:33;;;;;;;23.48;12.35;;;;;;;14.43;99.92;101383.31;5083983;28;20073;-65
2021/09/19 08:14:07;;;;;;;23.25;11.95;;;;;;;14.42;97.82;101374.44;5082021;28;20027;-65
2021/09/19 08:16:37;;;;;;;23.23;11.35;;;;;;;14.42;94.57;101379.78;5083797;28;20051;-65
2021/09/19 08:19:04;;;;;;;22.58;11.00;;;;;;;14.43;95.15;101381.56;5081129;28;20070;-66
2021/09/19 08:21:30;;;;;;;23.63;10.82;;;;;;;14.46;92.89;101373.56;5083381;28;20511;-65
2021/09/19 08:23:56;;;;;;;22.50;11.65;;;;;;;14.62;96.48;101368.19;5082173;28;20104;-64
2021/09/19 08:26:21;;;;;;;24.30;11.75;;;;;;;14.83;93.76;101377.88;5082455;28;20020;-65
2021/09/19 08:28:47;;;;;;;24.48;11.95;;;;;;;14.91;93.64;101384.06;5083789;28;20021;-64
2021/09/19 08:31:12;;;;;;;23.67;11.88;;;;;;;15.03;91.18;101382.19;5080898;28;20426;-64
2021/09/19 08:33:37;;;;;;;22.60;11.82;;;;;;;15.22;89.88;101389.19;5084069;28;20040;-64
2021/09/19 08:36:03;;;;;;;22.30;10.90;;;;;;;15.35;88.06;101390.00;5081284;28;20025;-64
2021/09/19 08:38:28;;;;;;;22.17;10.82;;;;;;;15.44;86.20;101383.72;5083261;28;20029;-64
2021/09/19 08:40:54;;;;;;;23.25;11.18;;;;;;;15.56;86.48;101391.63;5081287;28;20190;-66
2021/09/19 08:43:19;;;;;;;22.48;10.55;;;;;;;15.53;86.81;101388.97;5087830;28;20077;-65
2021/09/19 08:45:49;;;;;;;21.40;10.23;;;;;;;15.49;85.28;101387.22;5089699;28;20027;-65
2021/09/19 08:48:19;;;;;;;21.73;10.57;;;;;;;15.52;86.17;101387.19;5091496;28;20016;-65
2021/09/19 08:50:50;;;;;;;22.33;10.50;;;;;;;15.67;85.59;101386.22;5088254;28;20020;-65
2021/09/19 08:53:15;;;;;;;23.27;10.27;;;;;;;15.86;84.11;101386.97;5087872;28;20047;-65
2021/09/19 08:55:45;;;;;;;21.50;10.25;;;;;;;15.95;83.42;101386.88;5091390;28;20364;-66
2021/09/19 08:58:11;;;;;;;21.55;9.60;;;;;;;16.14;82.75;101384.03;5089233;28;20495;-66
2021/09/19 09:00:47;;;;;;;21.55;10.07;;;;;;;16.49;80.17;101393.44;5091884;28;20031;-65
2021/09/19 09:03:15;;;;;;;20.80;9.52;;;;;;;16.62;79.24;101383.53;5082822;28;20545;-64
2021/09/19 09:05:41;;;;;;;21.83;9.50;;;;;;;16.69;78.33;101383.41;5087421;28;20520;-65
2021/09/19 09:08:07;;;;;;;22.27;9.25;;;;;;;17.08;77.33;101393.59;5084595;28;20022;-64
2021/09/19 09:10:33;;;;;;;22.33;9.68;;;;;;;17.33;75.13;101390.56;5087311;28;20105;-65
2021/09/19 09:13:00;;;;;;;21.17;9.65;;;;;;;17.63;75.52;101399.91;5085033;28;20059;-64
2021/09/19 09:15:37;;;;;;;21.00;9.45;;;;;;;17.76;74.38;101397.91;5086450;28;20020;-65
2021/09/19 09:18:07;;;;;;;21.20;9.20;;;;;;;17.88;72.71;101396.81;5084365;28;20031;-61
2021/09/19 09:21:17;;;;;;;20.17;8.82;;;;;;;18.31;74.54;101401.44;5087429;28;20020;-66
2021/09/19 09:23:47;;;;;;;19.85;8.63;;;;;;;18.54;70.28;101390.28;5014401;28;20042;-66
2021/09/19 09:26:23;;;;;;;21.67;8.60;;;;;;;19.03;68.43;101400.91;5006052;28;20034;-66
2021/09/19 09:28:53;;;;;;;20.27;8.68;;;;;;;19.60;65.35;101395.13;5010661;28;20116;-65
2021/09/19 09:31:52;;;;;;;21.05;8.68;;;;;;;20.03;65.45;101395.84;5008124;28;20022;-65
2021/09/19 09:34:17;;;;;;;20.30;8.65;;;;;;;19.95;63.32;101385.31;5008178;28;20056;-64
2021/09/19 09:36:55;;;;;;;21.23;8.68;;;;;;;19.90;62.76;101387.22;5007405;28;20030;-65
2021/09/19 09:39:26;;;;;;;19.38;8.23;;;;;;;20.67;62.05;101384.28;5007253;28;20125;-65
2021/09/19 09:41:54;;;;;;;19.02;8.00;;;;;;;21.82;58.12;101384.28;5009363;28;20500;-65
2021/09/19 09:44:28;;;;;;;20.45;8.25;;;;;;;22.68;57.27;101381.19;5005749;28;20088;-65
2021/09/19 09:46:54;;;;;;;19.75;7.72;;;;;;;23.22;53.71;101387.22;5009289;28;20041;-67
2021/09/19 09:49:42;;;;;;;20.00;7.82;;;;;;;23.58;55.04;101383.97;5006920;28;20464;-65
2021/09/19 09:52:12;;;;;;;19.58;7.20;;;;;;;23.80;51.92;101378.53;5009047;28;20081;-64
2021/09/19 09:54:43;;;;;;;18.67;6.85;;;;;;;23.80;50.06;101383.06;5007536;28;20061;-68
2021/09/19 09:57:11;;;;;;;18.20;6.70;;;;;;;24.34;48.47;101391.56;5009879;28;20041;-69
2021/09/19 09:59:36;;;;;;;18.20;6.70;;;;;;;24.70;47.20;101372.81;5064756;28;20071;-69
2021/09/19 10:02:03;;;;;;;18.05;6.15;;;;;;;24.98;46.03;101376.91;5090403;28;20056;-68
2021/09/19 10:04:32;;;;;;;17.90;6.13;;;;;;;24.94;46.80;101378.00;5074239;28;20036;-64
2021/09/19 10:06:58;;;;;;;18.38;6.43;;;;;;;25.31;45.94;101381.66;5090210;28;20020;-64
2021/09/19 10:09:23;;;;;;;19.42;6.97;;;;;;;24.92;45.63;101381.75;5088666;28;20478;-64
2021/09/19 10:11:49;;;;;;;18.33;7.00;;;;;;;24.86;45.61;101391.03;5093744;28;20046;-64
2021/09/19 10:14:14;;;;;;;19.17;7.30;;;;;;;25.11;45.76;101381.75;5069745;28;20028;-64
2021/09/19 10:16:40;;;;;;;18.58;7.15;;;;;;;25.82;43.46;101386.34;5088918;28;20020;-64
2021/09/19 10:19:05;;;;;;;19.65;6.97;;;;;;;26.62;41.89;101382.19;5090860;28;20554;-65
2021/09/19 10:21:34;;;;;;;18.65;6.93;;;;;;;26.37;42.48;101383.50;5087294;28;20024;-65
2021/09/19 10:24:00;;;;;;;19.05;6.88;;;;;;;26.18;42.69;101382.72;5091362;28;20028;-65
2021/09/19 10:26:25;;;;;;;18.55;6.75;;;;;;;26.73;41.73;101379.75;5092436;28;20119;-66
2021/09/19 10:28:54;;;;;;;18.83;6.60;;;;;;;27.30;40.65;101384.72;5084654;28;20032;-66
2021/09/19 10:31:25;;;;;;;18.35;6.53;;;;;;;27.05;41.11;101385.22;5085913;28;20149;-66
2021/09/19 10:33:53;;;;;;;19.00;7.03;;;;;;;27.11;40.99;101379.44;5082380;28;20020;-65
2021/09/19 10:36:52;;;;;;;19.02;6.93;;;;;;;27.88;41.99;101384.09;5085639;28;20020;-65
2021/09/19 10:39:23;;;;;;;18.67;6.57;;;;;;;28.02;39.45;101392.34;5000300;28;20046;-65
2021/09/19 10:42:13;;;;;;;17.65;5.97;;;;;;;28.04;40.85;101384.09;5000209;28;20026;-66
2021/09/19 10:44:45;;;;;;;17.02;5.55;;;;;;;28.81;38.22;101374.75;5002832;28;20109;-65
2021/09/19 10:47:26;;;;;;;17.83;6.03;;;;;;;28.30;37.84;101390.63;5001130;28;20031;-66
2021/09/19 10:50:10;;;;;;;17.00;5.95;;;;;;;28.03;38.54;101385.91;5000973;28;20038;-66
2021/09/19 10:52:43;;;;;;;18.15;6.20;;;;;;;28.36;37.52;101384.81;5001481;28;20095;-66
2021/09/19 10:55:21;;;;;;;17.35;6.10;;;;;;;28.90;37.23;101377.84;5002893;28;20126;-66
2021/09/19 10:57:57;;;;;;;17.73;6.05;;;;;;;29.10;35.71;101379.28;5004051;28;20027;-66
2021/09/19 11:00:24;;;;;;;17.08;5.95;;;;;;;30.03;34.42;101379.44;5000912;28;20045;-66
2021/09/19 11:03:08;;;;;;;15.02;5.40;;;;;;;30.81;33.91;101375.72;5003934;28;20173;-66